Time;durP1;ratioP1;P1;durP2;ratioP2;P2;SDS_P1;SDS_P2;PMS_P1;PMS_P2;Temp;Humidity;BMP_temperature;BMP_pressure;BME280_temperature;BME280_humidity;BME280_pressure;Samples;Min_cycle;Max_cycle;Signal;HPM_P1;HPM_P2
2023/10/11 06:41:53;;;;;;;18.40;6.35;;;;;;;12.60;76.13;96892.00;2084104;28;20580;-67
2023/10/11 06:44:13;;;;;;;20.33;7.10;;;;;;;12.89;75.12;96878.28;2099648;27;20569;-66
2023/10/11 06:45:17;;;;;;;16.90;6.85;;;;;;;12.85;75.46;96886.34;2081916;28;20220;-66
2023/10/11 06:47:36;;;;;;;13.63;6.32;;;;;;;13.10;74.76;96882.50;2108797;27;20554;-67
2023/10/11 06:48:38;;;;;;;19.15;6.60;;;;;;;14.24;72.06;96889.63;2106515;28;20302;-67
2023/10/11 06:49:47;;;;;;;17.45;6.25;;;;;;;14.64;70.68;96882.16;2104950;27;20226;-67
2023/10/11 06:50:52;;;;;;;21.40;5.93;;;;;;;14.28;71.02;96875.38;2102675;28;20185;-67
2023/10/11 06:51:53;;;;;;;19.60;6.35;;;;;;;14.15;71.29;96890.97;2102479;28;20236;-67
2023/10/11 06:52:55;;;;;;;17.10;7.30;;;;;;;14.15;71.54;96879.63;2103329;28;20202;-66
2023/10/11 06:53:57;;;;;;;13.93;6.55;;;;;;;14.17;71.55;96889.13;2101625;28;20187;-66
2023/10/11 06:55:13;;;;;;;23.17;5.65;;;;;;;14.72;70.45;96886.97;2102123;28;20628;-66
2023/10/11 06:56:17;;;;;;;20.25;6.90;;;;;;;15.03;69.04;96890.44;2103016;28;20191;-66
2023/10/11 06:57:21;;;;;;;23.08;6.50;;;;;;;15.12;69.12;96895.16;2101786;28;20199;-66
2023/10/11 06:58:23;;;;;;;16.88;7.00;;;;;;;15.41;67.98;96897.81;2102451;28;20222;-66
2023/10/11 06:59:27;;;;;;;24.67;7.40;;;;;;;15.21;68.18;96896.41;2101181;28;20202;-67
2023/10/11 07:00:36;;;;;;;13.70;5.88;;;;;;;15.17;68.03;96897.50;2102875;28;20198;-66
2023/10/11 07:01:41;;;;;;;15.77;6.40;;;;;;;15.36;67.62;96897.25;2101642;28;20665;-66
2023/10/11 07:02:47;;;;;;;14.15;6.28;;;;;;;15.16;68.50;96901.06;2104037;28;20572;-66
2023/10/11 07:03:52;;;;;;;13.65;5.80;;;;;;;15.29;67.81;96893.31;2107252;28;20186;-66
2023/10/11 07:04:53;;;;;;;16.83;7.75;;;;;;;15.52;67.38;96905.09;2100576;28;20266;-66
2023/10/11 07:05:56;;;;;;;28.50;7.40;;;;;;;15.37;67.77;96890.22;2102613;28;20211;-66
2023/10/11 07:06:58;;;;;;;24.98;7.45;;;;;;;15.65;67.17;96887.59;2102509;28;20289;-66
2023/10/11 07:08:04;;;;;;;13.02;5.93;;;;;;;16.25;65.78;96890.97;2103165;28;20195;-66
2023/10/11 07:09:08;;;;;;;15.18;6.35;;;;;;;16.67;64.61;96895.34;2102899;28;20199;-67
2023/10/11 07:10:27;;;;;;;13.32;6.22;;;;;;;16.61;64.06;96899.22;2102565;28;20234;-66
2023/10/11 07:11:49;;;;;;;17.33;6.00;;;;;;;16.14;65.78;96894.25;2100538;28;20205;-66
2023/10/11 07:13:03;;;;;;;26.70;7.50;;;;;;;15.99;66.35;96889.97;2102057;28;20688;-66
2023/10/11 07:14:05;;;;;;;19.77;7.95;;;;;;;16.51;65.29;96895.50;2101864;28;20636;-66
2023/10/11 07:15:08;;;;;;;15.18;6.47;;;;;;;16.86;64.92;96892.34;2098796;28;20230;-67
2023/10/11 07:16:10;;;;;;;21.20;6.65;;;;;;;17.06;64.39;96896.31;2099912;28;20207;-66
2023/10/11 07:17:12;;;;;;;24.75;6.47;;;;;;;17.47;63.45;96900.56;2100614;28;20192;-66
2023/10/11 07:18:25;;;;;;;26.75;6.07;;;;;;;18.06;61.68;96893.91;2100283;28;20206;-67
2023/10/11 07:19:27;;;;;;;18.25;6.07;;;;;;;18.35;60.64;96898.91;2101345;28;20224;-67
2023/10/11 07:22:02;;;;;;;19.80;6.72;;;;;;;18.72;59.67;96894.41;2093595;28;20199;-67
2023/10/11 07:23:05;;;;;;;17.38;6.65;;;;;;;18.70;59.71;96900.78;2103111;28;20198;-68
2023/10/11 07:24:19;;;;;;;17.38;7.28;;;;;;;18.57;59.57;96900.84;2102924;28;20195;-67
2023/10/11 07:25:36;;;;;;;14.65;6.38;;;;;;;18.66;59.54;96902.78;2102454;28;20222;-67
2023/10/11 07:26:48;;;;;;;22.02;6.32;;;;;;;18.69;59.40;96904.38;2101756;28;20198;-67
2023/10/11 07:27:53;;;;;;;13.13;6.60;;;;;;;18.71;59.41;96905.13;2101253;28;20207;-67
2023/10/11 07:28:56;;;;;;;12.02;6.25;;;;;;;18.34;60.61;96899.88;2101964;28;20204;-67
2023/10/11 07:30:00;;;;;;;18.15;6.75;;;;;;;18.52;60.63;96901.16;2095156;28;20231;-67
2023/10/11 07:31:05;;;;;;;25.90;6.95;;;;;;;19.30;58.87;96912.22;2094063;28;20238;-68
2023/10/11 07:32:09;;;;;;;18.77;6.47;;;;;;;19.33;58.46;96908.50;2093960;28;20211;-67
2023/10/11 07:33:12;;;;;;;17.83;6.00;;;;;;;19.58;58.20;96913.59;2093806;28;20311;-67
2023/10/11 07:34:18;;;;;;;18.88;6.38;;;;;;;20.06;57.24;96912.56;2094851;28;20192;-67
2023/10/11 07:35:27;;;;;;;15.48;6.53;;;;;;;19.80;57.59;96916.41;2091764;28;20211;-67
2023/10/11 07:36:29;;;;;;;19.50;6.05;;;;;;;21.01;55.19;96919.16;2092932;28;20203;-67
2023/10/11 07:37:30;;;;;;;16.15;7.00;;;;;;;20.38;55.65;96916.28;2093217;28;20818;-67
2023/10/11 07:38:34;;;;;;;23.55;6.65;;;;;;;20.56;55.58;96917.44;2093549;28;20192;-67
2023/10/11 07:39:37;;;;;;;18.65;6.25;;;;;;;20.29;55.84;96917.88;2092617;28;20579;-67
2023/10/11 07:40:46;;;;;;;15.15;5.80;;;;;;;19.96;56.73;96914.28;2092875;28;20199;-68
2023/10/11 07:41:48;;;;;;;19.40;6.05;;;;;;;20.67;56.22;96921.88;2092814;28;20259;-68
2023/10/11 07:42:54;;;;;;;15.88;6.32;;;;;;;19.89;57.12;96915.69;2093316;28;20184;-68
2023/10/11 07:43:57;;;;;;;12.55;6.20;;;;;;;19.98;56.71;96919.44;2092898;28;20395;-67
2023/10/11 07:45:00;;;;;;;18.27;6.10;;;;;;;20.13;56.49;96914.75;2092976;28;20281;-67
2023/10/11 07:46:02;;;;;;;19.05;6.82;;;;;;;20.87;55.21;96919.44;2093742;28;20233;-68
2023/10/11 07:47:15;;;;;;;14.70;6.22;;;;;;;21.04;54.56;96918.88;2093917;28;20567;-68
2023/10/11 07:48:17;;;;;;;15.52;6.70;;;;;;;21.09;54.92;96920.31;2093214;28;20246;-67
2023/10/11 07:49:25;;;;;;;18.75;6.60;;;;;;;20.93;55.13;96916.28;2092079;28;20200;-67
2023/10/11 07:50:27;;;;;;;22.55;5.88;;;;;;;20.98;54.46;96914.06;2093756;28;20192;-68
2023/10/11 07:51:30;;;;;;;33.87;6.80;;;;;;;21.03;54.56;96916.34;2093560;28;20704;-68
2023/10/11 07:52:33;;;;;;;19.13;6.43;;;;;;;21.51;53.72;96909.72;2093178;28;21153;-68
2023/10/11 07:53:44;;;;;;;14.97;6.40;;;;;;;21.87;53.13;96909.38;2093762;28;20428;-67
2023/10/11 07:54:45;;;;;;;24.00;5.57;;;;;;;22.13;52.94;96907.09;2092898;28;20452;-67
2023/10/11 07:55:46;;;;;;;14.30;6.00;;;;;;;22.46;52.09;96905.13;2093888;28;20410;-67
2023/10/11 07:56:52;;;;;;;12.60;5.23;;;;;;;22.67;51.31;96905.03;2094053;28;20424;-68
2023/10/11 07:58:00;;;;;;;14.93;5.97;;;;;;;22.89;51.02;96908.41;2093256;28;20421;-67
2023/10/11 07:59:08;;;;;;;18.77;6.00;;;;;;;23.35;50.34;96906.88;2087883;28;20440;-67
2023/10/11 08:00:16;;;;;;;16.17;6.57;;;;;;;23.42;50.32;96915.13;2086980;28;20460;-67
2023/10/11 08:01:25;;;;;;;14.13;5.37;;;;;;;23.53;49.97;96908.78;2086980;28;20426;-68
2023/10/11 08:02:29;;;;;;;21.10;6.27;;;;;;;23.93;49.78;96915.75;2088879;28;20440;-68
2023/10/11 08:03:37;;;;;;;39.97;6.30;;;;;;;24.00;49.79;96910.66;2087435;28;20718;-68
2023/10/11 08:04:47;;;;;;;16.87;5.50;;;;;;;24.61;48.46;96910.06;2087921;28;20454;-67
2023/10/11 08:05:53;;;;;;;11.23;4.97;;;;;;;24.17;49.11;96907.22;2087219;28;20423;-67
2023/10/11 08:07:06;;;;;;;18.10;5.77;;;;;;;24.25;49.29;96910.00;2087777;28;20453;-67
2023/10/11 08:08:10;;;;;;;20.17;5.53;;;;;;;24.23;49.36;96908.47;2087850;28;20462;-68
2023/10/11 08:09:19;;;;;;;26.27;5.80;;;;;;;24.29;49.25;96899.88;2088373;28;21130;-67
2023/10/11 08:10:33;;;;;;;10.83;5.30;;;;;;;24.67;48.90;96903.34;2087886;28;20434;-67
2023/10/11 08:11:56;;;;;;;19.93;6.17;;;;;;;25.04;47.98;96905.03;2087407;28;20432;-67
2023/10/11 08:12:57;;;;;;;15.43;4.83;;;;;;;25.28;46.76;96903.56;2086849;28;20448;-67
2023/10/11 08:14:05;;;;;;;21.27;4.53;;;;;;;25.48;45.55;96903.41;2096508;28;21012;-68
2023/10/11 08:15:10;;;;;;;12.37;4.80;;;;;;;26.04;44.11;96910.09;2095432;28;20552;-68
2023/10/11 08:16:13;;;;;;;20.77;5.00;;;;;;;26.42;44.49;96899.06;2086998;28;20491;-68
2023/10/11 08:17:19;;;;;;;24.53;5.33;;;;;;;26.44;44.94;96901.59;2088173;28;20433;-68
2023/10/11 08:18:21;;;;;;;15.63;5.00;;;;;;;26.52;45.13;96893.56;2086460;28;20418;-68
2023/10/11 08:19:23;;;;;;;25.20;6.03;;;;;;;26.49;45.12;96897.41;2086760;28;20440;-67
2023/10/11 08:20:28;;;;;;;13.00;4.97;;;;;;;26.75;44.02;96896.50;2087279;28;21054;-68
2023/10/11 08:21:30;;;;;;;16.90;5.50;;;;;;;27.02;42.82;96897.19;2085982;28;20426;-68
2023/10/11 08:22:32;;;;;;;12.30;4.97;;;;;;;26.92;42.99;96900.06;2087320;28;21144;-68
2023/10/11 08:23:42;;;;;;;11.33;5.07;;;;;;;26.98;42.78;96904.75;2088076;28;20418;-68
2023/10/11 08:24:47;;;;;;;14.60;5.40;;;;;;;27.52;41.72;96911.50;2085611;28;20449;-68
2023/10/11 08:25:51;;;;;;;9.80;4.73;;;;;;;27.41;41.99;96909.97;2086767;28;20865;-68
2023/10/11 08:26:53;;;;;;;12.53;4.57;;;;;;;26.91;42.30;96905.59;2087604;28;20427;-68
2023/10/11 08:28:12;;;;;;;10.03;4.70;;;;;;;26.80;43.20;96906.72;2087859;28;20545;-68
2023/10/11 08:29:32;;;;;;;12.80;4.90;;;;;;;27.18;43.04;96902.56;2087553;28;20425;-68
2023/10/11 08:30:38;;;;;;;14.47;5.00;;;;;;;27.75;41.58;96906.25;2088363;28;20457;-68
2023/10/11 08:31:40;;;;;;;23.50;4.67;;;;;;;27.38;42.70;96907.63;2087630;28;20422;-69
2023/10/11 08:32:46;;;;;;;18.20;5.43;;;;;;;27.50;44.58;96898.25;2087366;28;20418;-68
2023/10/11 08:33:49;;;;;;;16.80;5.60;;;;;;;27.49;44.21;96906.44;2086346;28;20430;-68
2023/10/11 08:34:51;;;;;;;23.70;5.60;;;;;;;27.49;43.74;96915.34;2087423;28;20461;-68
2023/10/11 08:35:53;;;;;;;19.63;5.37;;;;;;;27.97;43.93;96912.75;2087572;28;20423;-68
2023/10/11 08:36:57;;;;;;;28.03;4.83;;;;;;;28.41;43.42;96908.75;2087763;28;20425;-68
2023/10/11 08:38:06;;;;;;;13.03;4.60;;;;;;;28.23;43.16;96902.81;2086123;28;20962;-68
2023/10/11 08:39:08;;;;;;;26.17;5.70;;;;;;;28.20;43.30;96898.59;2088108;28;20460;-68
2023/10/11 08:40:21;;;;;;;19.40;4.60;;;;;;;29.95;41.32;96899.94;2087911;28;20496;-68
2023/10/11 08:41:22;;;;;;;12.07;4.33;;;;;;;29.39;41.20;96902.97;2086427;28;20516;-69
2023/10/11 08:42:30;;;;;;;15.07;4.60;;;;;;;29.00;40.79;96908.28;2086638;28;20434;-68
2023/10/11 08:43:35;;;;;;;15.20;5.23;;;;;;;28.98;41.14;96898.72;2086356;28;20429;-68
2023/10/11 08:44:45;;;;;;;18.20;4.17;;;;;;;29.52;39.33;96899.66;2087701;28;20508;-68
2023/10/11 08:45:49;;;;;;;9.13;4.30;;;;;;;29.48;38.94;96901.88;2087899;28;20482;-68
2023/10/11 08:46:52;;;;;;;12.40;4.50;;;;;;;29.84;38.31;96893.13;2088534;28;20457;-69
2023/10/11 08:47:54;;;;;;;13.33;4.27;;;;;;;29.75;38.16;96897.75;2087936;28;20475;-68
2023/10/11 08:49:00;;;;;;;13.77;4.23;;;;;;;30.73;37.12;96894.94;2086849;28;20428;-68
2023/10/11 08:50:08;;;;;;;17.20;3.87;;;;;;;30.07;37.14;96892.25;2086286;28;20457;-68
2023/10/11 08:51:12;;;;;;;10.20;4.97;;;;;;;29.69;38.01;96890.44;2086002;28;20438;-68
2023/10/11 08:52:29;;;;;;;13.10;3.63;;;;;;;29.78;37.48;96889.31;2087161;28;20543;-68
2023/10/11 08:53:31;;;;;;;15.50;5.20;;;;;;;29.80;37.87;96892.66;2087620;28;20418;-68
2023/10/11 08:54:35;;;;;;;12.47;4.40;;;;;;;29.78;37.49;96897.38;2087848;28;20449;-68
2023/10/11 08:55:39;;;;;;;15.93;4.70;;;;;;;30.26;37.07;96899.75;2088701;28;21098;-68
2023/10/11 08:56:54;;;;;;;13.37;4.30;;;;;;;29.95;37.37;96892.72;2088113;28;20414;-68
2023/10/11 08:57:56;;;;;;;13.87;4.47;;;;;;;30.06;37.68;96888.69;2085190;28;20931;-68
2023/10/11 08:59:01;;;;;;;15.70;4.37;;;;;;;29.83;37.48;96893.28;2085238;28;20890;-68
2023/10/11 09:00:17;;;;;;;9.53;3.70;;;;;;;29.69;37.73;96890.44;2091682;28;20452;-68
2023/10/11 09:01:24;;;;;;;15.10;5.20;;;;;;;30.59;36.95;96882.38;2094526;28;20424;-69
2023/10/11 09:02:28;;;;;;;11.43;4.10;;;;;;;30.21;37.08;96891.41;2096130;28;20444;-69
2023/10/11 09:03:31;;;;;;;16.00;4.80;;;;;;;29.04;37.93;96892.63;2096562;28;20912;-68
2023/10/11 09:04:35;;;;;;;16.43;4.70;;;;;;;29.79;37.97;96895.53;2094877;28;20922;-68
2023/10/11 09:05:43;;;;;;;14.97;4.60;;;;;;;29.78;37.64;96891.19;2096774;28;20561;-68
2023/10/11 09:06:45;;;;;;;10.73;4.97;;;;;;;29.96;38.10;96888.97;2096195;28;20833;-69
2023/10/11 09:07:47;;;;;;;15.80;4.90;;;;;;;30.44;37.49;96885.06;2095597;28;20425;-68
2023/10/11 09:08:51;;;;;;;23.27;4.67;;;;;;;30.82;36.72;96881.34;2094993;28;20891;-69
2023/10/11 09:09:54;;;;;;;9.20;4.10;;;;;;;30.76;36.17;96888.34;2094653;28;20463;-68
2023/10/11 09:11:11;;;;;;;11.40;4.03;;;;;;;31.05;36.22;96879.31;2095816;28;20840;-68
2023/10/11 09:12:23;;;;;;;15.77;4.53;;;;;;;30.71;36.36;96882.69;2096451;28;20511;-68
2023/10/11 09:13:26;;;;;;;11.63;5.00;;;;;;;31.27;35.83;96885.56;2096610;28;20949;-68
2023/10/11 09:14:29;;;;;;;12.30;4.40;;;;;;;30.66;36.21;96883.25;2095145;28;20428;-68
2023/10/11 09:15:44;;;;;;;13.50;4.60;;;;;;;30.80;35.50;96886.09;2096459;28;21095;-68
2023/10/11 09:16:46;;;;;;;7.50;3.97;;;;;;;30.91;36.00;96886.44;2093303;28;20428;-68
2023/10/11 09:18:13;;;;;;;13.00;4.70;;;;;;;30.20;36.09;96884.34;2093498;28;21015;-68
2023/10/11 09:19:24;;;;;;;25.30;4.20;;;;;;;30.09;36.13;96890.19;2095136;28;20957;-68
2023/10/11 09:20:40;;;;;;;16.57;4.57;;;;;;;29.99;36.57;96879.69;2094536;28;20810;-68
2023/10/11 09:21:42;;;;;;;16.27;3.33;;;;;;;30.13;36.23;96883.41;2094472;28;20954;-68
2023/10/11 09:22:55;;;;;;;8.40;3.90;;;;;;;29.72;36.04;96881.97;2094286;28;21387;-68
2023/10/11 09:24:00;;;;;;;10.57;3.27;;;;;;;30.32;36.26;96879.28;2093916;28;20829;-68
2023/10/11 09:25:08;;;;;;;14.53;4.87;;;;;;;30.26;36.44;96880.91;2092134;28;20527;-68
2023/10/11 09:26:10;;;;;;;15.87;4.10;;;;;;;30.07;36.20;96879.63;2094339;28;20477;-68
2023/10/11 09:28:17;;;;;;;18.63;4.43;;;;;;;29.89;36.19;96874.59;2095196;28;20433;-68
2023/10/11 09:29:24;;;;;;;8.03;3.73;;;;;;;30.36;35.79;96890.53;2094353;28;20460;-68
2023/10/11 09:30:27;;;;;;;17.80;4.70;;;;;;;30.71;35.47;96885.38;2094711;28;20462;-68
2023/10/11 09:31:33;;;;;;;14.00;3.97;;;;;;;30.76;35.81;96883.78;2094332;28;20830;-68
2023/10/11 09:32:35;;;;;;;16.03;3.97;;;;;;;30.65;35.88;96886.16;2095347;28;20503;-67
2023/10/11 09:33:40;;;;;;;14.60;3.90;;;;;;;30.82;35.81;96892.97;2095372;28;20409;-68
2023/10/11 09:34:42;;;;;;;13.20;4.13;;;;;;;30.67;35.88;96884.94;2094135;28;20465;-68
2023/10/11 09:35:49;;;;;;;12.60;3.30;;;;;;;31.30;35.44;96886.19;2096463;28;20417;-68
2023/10/11 09:36:56;;;;;;;12.73;3.30;;;;;;;31.13;35.25;96896.41;2094924;28;20424;-68
2023/10/11 09:37:59;;;;;;;12.80;3.93;;;;;;;31.44;34.98;96888.00;2093244;28;20429;-68
2023/10/11 09:39:04;;;;;;;15.23;4.40;;;;;;;31.18;34.97;96889.41;2094292;28;20935;-68
2023/10/11 09:40:15;;;;;;;16.20;3.70;;;;;;;31.73;34.85;96891.53;2102724;28;20462;-69
2023/10/11 09:41:21;;;;;;;14.60;3.77;;;;;;;32.08;34.56;96888.84;2101104;28;21200;-68
2023/10/11 09:42:25;;;;;;;12.60;3.50;;;;;;;31.84;35.09;96888.28;2095084;28;20424;-69
2023/10/11 09:43:28;;;;;;;16.70;4.10;;;;;;;31.21;35.36;96880.09;2095702;28;20432;-68
2023/10/11 09:44:37;;;;;;;17.60;3.50;;;;;;;31.74;35.39;96890.50;2095434;28;20626;-68
2023/10/11 09:45:42;;;;;;;12.07;4.13;;;;;;;31.98;34.90;96882.97;2095519;28;20573;-68
2023/10/11 09:46:46;;;;;;;10.83;4.00;;;;;;;32.01;34.62;96890.66;2094073;28;20432;-68
2023/10/11 09:47:54;;;;;;;12.97;3.83;;;;;;;31.82;34.50;96884.13;2093079;28;20424;-68
2023/10/11 09:49:00;;;;;;;12.97;4.40;;;;;;;31.83;35.01;96886.63;2093371;28;20464;-68
2023/10/11 09:50:01;;;;;;;14.57;4.03;;;;;;;32.03;34.56;96888.63;2094138;28;20481;-68
2023/10/11 09:51:08;;;;;;;11.43;4.23;;;;;;;31.89;34.49;96885.00;2101589;28;20484;-68
2023/10/11 09:52:10;;;;;;;15.63;4.03;;;;;;;32.01;34.69;96894.22;2099885;28;20455;-68
2023/10/11 09:53:13;;;;;;;15.30;4.23;;;;;;;32.17;34.68;96893.03;2096296;28;20421;-67
2023/10/11 09:54:15;;;;;;;12.03;3.43;;;;;;;32.84;34.11;96892.56;2095548;28;20417;-68
2023/10/11 09:55:30;;;;;;;16.40;4.27;;;;;;;31.99;34.40;96892.75;2096590;28;20485;-68
2023/10/11 09:56:50;;;;;;;14.97;3.70;;;;;;;32.23;34.72;96889.59;2097123;28;20425;-68
2023/10/11 09:58:22;;;;;;;12.60;4.20;;;;;;;32.50;33.96;96888.88;2095162;28;20428;-68
2023/10/11 09:59:39;;;;;;;12.00;4.07;;;;;;;32.76;33.41;96888.16;2094985;28;20425;-68
2023/10/11 10:00:54;;;;;;;11.60;3.57;;;;;;;33.49;32.58;96882.03;2093290;28;20865;-68
2023/10/11 10:02:06;;;;;;;10.30;3.90;;;;;;;33.65;32.64;96882.63;2094186;28;20496;-68
2023/10/11 10:03:13;;;;;;;16.00;4.63;;;;;;;33.36;33.52;96873.91;2092736;28;20491;-67
2023/10/11 10:04:15;;;;;;;15.43;4.20;;;;;;;33.13;33.16;96874.28;2094955;28;20975;-68
2023/10/11 10:05:22;;;;;;;15.20;4.27;;;;;;;34.05;31.98;96881.78;2094102;28;20444;-68
2023/10/11 10:06:25;;;;;;;12.80;3.70;;;;;;;33.14;33.04;96878.66;2095424;28;20429;-68
2023/10/11 10:07:42;;;;;;;15.37;4.00;;;;;;;34.33;32.24;96879.63;2096056;28;20810;-67
2023/10/11 10:09:09;;;;;;;15.83;4.90;;;;;;;33.90;32.27;96877.41;2095814;28;20575;-64
2023/10/11 10:10:27;;;;;;;14.40;3.83;;;;;;;33.37;32.92;96881.00;2082949;28;20483;-64
2023/10/11 10:12:05;;;;;;;10.87;4.10;;;;;;;33.24;32.84;96880.94;2095172;28;20474;-66
2023/10/11 10:13:09;;;;;;;15.63;3.77;;;;;;;33.42;33.05;96888.47;2094890;28;20566;-64
2023/10/11 10:14:23;;;;;;;12.70;3.60;;;;;;;33.27;33.57;96884.09;2095864;28;20507;-65
2023/10/11 10:15:32;;;;;;;8.80;3.60;;;;;;;32.55;34.26;96884.50;2095772;28;20452;-64
2023/10/11 10:17:10;;;;;;;19.30;3.90;;;;;;;33.54;33.05;96882.22;2094534;28;20477;-67
2023/10/11 10:18:14;;;;;;;11.90;3.73;;;;;;;33.68;33.33;96885.75;2095381;28;20427;-63
2023/10/11 10:19:23;;;;;;;12.90;4.27;;;;;;;34.22;32.67;96888.41;2095719;28;20432;-64
2023/10/11 10:20:43;;;;;;;11.03;4.10;;;;;;;34.15;32.70;96879.44;2095150;28;20468;-64
2023/10/11 10:22:27;;;;;;;12.97;3.77;;;;;;;34.00;32.50;96888.66;2094872;28;20761;-64
2023/10/11 10:23:32;;;;;;;13.07;3.67;;;;;;;33.18;33.13;96885.34;2077026;28;20445;-64
2023/10/11 10:24:34;;;;;;;11.50;4.00;;;;;;;33.10;33.61;96885.50;2076652;28;20448;-64
2023/10/11 10:25:36;;;;;;;15.20;4.70;;;;;;;34.05;32.79;96890.72;2076646;28;20429;-65
2023/10/11 10:26:38;;;;;;;11.60;3.30;;;;;;;33.40;32.88;96885.97;2075793;28;20446;-64
2023/10/11 10:27:41;;;;;;;15.57;3.93;;;;;;;33.39;33.02;96883.50;2077130;28;20434;-65
2023/10/11 10:28:45;;;;;;;13.37;4.27;;;;;;;32.66;33.54;96884.97;2075313;28;20419;-64
2023/10/11 10:30:00;;;;;;;10.93;3.73;;;;;;;32.63;33.86;96885.38;2075533;28;20493;-65
2023/10/11 10:31:11;;;;;;;13.23;3.80;;;;;;;32.21;34.29;96880.88;2074318;28;20419;-64
2023/10/11 10:32:16;;;;;;;17.93;4.13;;;;;;;31.92;34.56;96877.34;2078295;28;20458;-65
2023/10/11 10:33:21;;;;;;;9.17;3.67;;;;;;;31.26;34.63;96877.66;2078201;28;20438;-64
2023/10/11 10:34:24;;;;;;;10.60;4.00;;;;;;;30.77;35.90;96874.66;2077708;28;20905;-64
2023/10/11 10:35:36;;;;;;;11.90;4.13;;;;;;;30.87;36.00;96871.66;2076546;28;20422;-64
2023/10/11 10:36:38;;;;;;;12.30;4.07;;;;;;;31.08;35.28;96878.97;2076074;28;20426;-64
2023/10/11 10:37:56;;;;;;;13.70;4.00;;;;;;;32.66;33.97;96882.25;2069932;28;20419;-64
2023/10/11 10:38:58;;;;;;;13.63;4.10;;;;;;;32.62;33.91;96876.44;2071623;28;20432;-64
2023/10/11 10:40:27;;;;;;;16.00;4.00;;;;;;;32.35;34.41;96873.66;2076135;28;21470;-64
2023/10/11 10:41:36;;;;;;;20.93;5.10;;;;;;;32.74;34.02;96881.28;2076420;28;20801;-65
2023/10/11 10:42:38;;;;;;;7.47;3.33;;;;;;;32.65;33.85;96872.50;2077075;28;20457;-65
2023/10/11 10:43:39;;;;;;;6.97;3.30;;;;;;;32.20;34.77;96872.94;2075711;28;20804;-65
2023/10/11 10:44:51;;;;;;;12.77;3.60;;;;;;;32.42;34.46;96873.66;2075591;28;21496;-65
2023/10/11 10:45:59;;;;;;;9.63;3.90;;;;;;;32.75;34.30;96872.97;2077714;28;20801;-65
2023/10/11 10:47:01;;;;;;;11.30;4.00;;;;;;;32.74;34.43;96879.41;2075973;28;20464;-64
2023/10/11 10:48:25;;;;;;;12.73;3.53;;;;;;;31.32;35.01;96870.66;2076051;28;20427;-65
2023/10/11 10:49:41;;;;;;;14.80;3.10;;;;;;;30.90;36.03;96860.50;2074263;28;20524;-65
2023/10/11 10:50:49;;;;;;;11.17;3.70;;;;;;;30.59;36.18;96863.50;2076972;28;20473;-64
2023/10/11 10:51:53;;;;;;;8.90;4.07;;;;;;;30.93;35.62;96862.81;2068571;28;20887;-64
2023/10/11 10:52:55;;;;;;;12.73;4.37;;;;;;;31.29;35.90;96865.63;2069219;28;20542;-65
2023/10/11 10:53:56;;;;;;;20.33;4.90;;;;;;;32.11;35.03;96866.84;2077499;28;20503;-65
2023/10/11 10:55:04;;;;;;;15.23;3.37;;;;;;;31.95;34.88;96865.31;2076999;28;20462;-64
2023/10/11 10:56:19;;;;;;;26.00;4.30;;;;;;;32.46;34.49;96863.31;2076121;28;20429;-65
2023/10/11 10:57:24;;;;;;;15.00;4.20;;;;;;;32.06;34.39;96859.34;2075146;28;20425;-64
2023/10/11 10:58:27;;;;;;;18.30;4.07;;;;;;;30.61;35.11;96864.13;2086571;28;20425;-65
2023/10/11 10:59:29;;;;;;;11.53;3.53;;;;;;;30.86;35.76;96851.13;2096684;28;20537;-64
2023/10/11 11:00:33;;;;;;;12.70;3.93;;;;;;;30.18;35.80;96856.75;2093797;28;20508;-64
2023/10/11 11:01:35;;;;;;;21.50;4.23;;;;;;;30.09;36.08;96861.44;2093172;28;20507;-65
2023/10/11 11:02:37;;;;;;;12.70;3.90;;;;;;;30.75;35.92;96857.88;2093646;28;20421;-64
2023/10/11 11:03:41;;;;;;;16.03;4.10;;;;;;;31.24;35.28;96860.84;2093204;28;20751;-65
2023/10/11 11:04:43;;;;;;;13.63;4.20;;;;;;;30.92;35.30;96853.06;2094354;28;20444;-64
2023/10/11 11:05:56;;;;;;;16.60;3.90;;;;;;;30.61;35.96;96856.91;2095482;28;20455;-65
2023/10/11 11:06:58;;;;;;;15.67;4.47;;;;;;;30.62;36.06;96855.03;2094913;28;20943;-65
2023/10/11 11:08:15;;;;;;;11.47;3.57;;;;;;;29.74;36.70;96853.03;2095310;28;20436;-64
2023/10/11 11:09:25;;;;;;;22.40;4.47;;;;;;;29.20;37.36;96851.34;2095126;28;20950;-63
2023/10/11 11:10:30;;;;;;;21.05;4.38;;;;;;;29.47;37.82;96851.78;2094305;28;20447;-64
2023/10/11 11:11:35;;;;;;;16.13;4.32;;;;;;;30.36;37.01;96848.28;2094432;28;20901;-65
2023/10/11 11:12:36;;;;;;;12.50;3.53;;;;;;;30.07;36.84;96847.31;2094805;28;20587;-64
2023/10/11 11:13:39;;;;;;;9.00;3.17;;;;;;;30.25;36.50;96846.09;2095706;28;20981;-64
2023/10/11 11:14:54;;;;;;;18.47;4.07;;;;;;;30.39;35.87;96849.78;2093108;28;20542;-64
2023/10/11 11:15:56;;;;;;;14.93;3.60;;;;;;;30.46;36.61;96846.13;2091430;28;20796;-64
2023/10/11 11:17:00;;;;;;;17.43;4.17;;;;;;;30.19;36.21;96849.53;2093136;28;20420;-65
2023/10/11 11:18:02;;;;;;;17.60;4.10;;;;;;;29.73;36.05;96845.97;2094809;28;20459;-64
2023/10/11 11:19:25;;;;;;;16.00;3.93;;;;;;;29.20;36.37;96832.53;2095429;28;20486;-64
2023/10/11 11:20:31;;;;;;;14.70;3.90;;;;;;;29.35;36.92;96837.97;2093891;28;20482;-64
2023/10/11 11:21:41;;;;;;;17.27;3.87;;;;;;;29.69;36.35;96839.31;2092072;28;20447;-64
2023/10/11 11:22:46;;;;;;;13.10;4.23;;;;;;;29.99;36.93;96833.13;2093525;28;20429;-64
2023/10/11 11:23:51;;;;;;;12.70;3.97;;;;;;;30.29;36.96;96831.22;2094529;28;20527;-64
2023/10/11 11:25:16;;;;;;;12.53;4.17;;;;;;;30.75;36.21;96836.31;2094785;28;20543;-65
2023/10/11 11:26:21;;;;;;;14.57;4.33;;;;;;;31.26;36.02;96842.59;2094501;28;20416;-65
2023/10/11 11:27:40;;;;;;;6.73;3.53;;;;;;;32.08;34.95;96840.25;2094635;28;20432;-64
2023/10/11 11:28:43;;;;;;;14.30;4.40;;;;;;;31.46;35.41;96841.94;2095518;28;20957;-64
2023/10/11 11:29:49;;;;;;;17.73;4.73;;;;;;;31.50;35.45;96835.09;2093840;28;20484;-65
2023/10/11 11:30:50;;;;;;;17.90;4.37;;;;;;;31.69;34.83;96837.16;2093644;28;20431;-65
2023/10/11 11:31:53;;;;;;;12.00;3.57;;;;;;;31.37;34.83;96838.53;2095552;28;20420;-65
2023/10/11 11:32:55;;;;;;;7.87;3.63;;;;;;;31.37;34.64;96835.84;2095334;28;20450;-65
2023/10/11 11:34:11;;;;;;;19.50;4.17;;;;;;;31.69;34.35;96836.28;2095989;28;20495;-66
2023/10/11 11:35:28;;;;;;;10.30;3.97;;;;;;;31.25;34.32;96832.84;2095983;28;20520;-64
2023/10/11 11:36:34;;;;;;;10.40;3.70;;;;;;;31.13;34.83;96831.72;2096510;28;20795;-64
2023/10/11 11:38:02;;;;;;;11.50;3.20;;;;;;;31.02;34.77;96825.78;2096540;28;20443;-64
2023/10/11 11:39:17;;;;;;;12.03;4.50;;;;;;;31.71;34.05;96823.44;2097280;28;20428;-64
2023/10/11 11:40:25;;;;;;;13.20;3.47;;;;;;;31.58;34.17;96829.56;2096085;28;20538;-64
2023/10/11 11:41:26;;;;;;;9.40;3.27;;;;;;;31.57;33.98;96830.59;2095530;28;20467;-64
2023/10/11 11:42:33;;;;;;;11.40;4.60;;;;;;;31.42;33.76;96823.41;2096033;28;20417;-65
2023/10/11 11:43:38;;;;;;;10.10;3.70;;;;;;;31.22;33.86;96817.03;2096091;28;20427;-64
2023/10/11 11:44:40;;;;;;;17.40;4.80;;;;;;;30.96;34.22;96810.38;2095646;28;21022;-64
2023/10/11 11:45:45;;;;;;;11.10;3.70;;;;;;;30.99;34.56;96817.25;2095782;28;20423;-64
2023/10/11 11:46:51;;;;;;;8.47;3.60;;;;;;;31.22;34.24;96815.22;2096009;28;20420;-64
2023/10/11 11:47:58;;;;;;;10.20;3.00;;;;;;;31.41;34.28;96811.00;2096206;28;20578;-64
2023/10/11 11:49:09;;;;;;;11.07;4.20;;;;;;;30.93;34.75;96808.06;2096933;28;20425;-64
2023/10/11 11:50:18;;;;;;;15.43;3.50;;;;;;;30.72;35.49;96811.63;2094367;28;20491;-64
2023/10/11 11:51:19;;;;;;;17.00;3.90;;;;;;;30.85;34.79;96808.22;2095478;28;20824;-64
2023/10/11 11:52:21;;;;;;;9.17;3.87;;;;;;;30.49;35.34;96806.38;2096544;28;20420;-64
2023/10/11 11:53:22;;;;;;;7.73;3.13;;;;;;;30.88;35.42;96799.72;2097408;28;20437;-64
2023/10/11 11:54:30;;;;;;;15.77;4.67;;;;;;;31.16;34.59;96801.66;2096658;28;20474;-64
2023/10/11 11:55:35;;;;;;;9.37;3.73;;;;;;;30.87;34.90;96803.47;2096806;28;20416;-64
2023/10/11 11:56:36;;;;;;;10.80;4.50;;;;;;;31.13;34.81;96807.44;2096212;28;20413;-64
2023/10/11 11:57:38;;;;;;;11.53;3.93;;;;;;;31.34;34.65;96803.84;2096544;28;20425;-65
2023/10/11 11:58:45;;;;;;;13.73;4.07;;;;;;;31.30;34.60;96803.44;2093577;28;20428;-64
2023/10/11 11:59:47;;;;;;;10.03;4.03;;;;;;;30.37;34.78;96790.72;2096083;28;20535;-65